createdAt,value
2022-09-01T04:17:26.409Z,112.00
2022-09-01T04:18:26.197Z,124.00
2022-09-01T04:19:27.162Z,140.00
2022-09-01T04:20:29.315Z,156.00
2022-09-01T04:21:31.510Z,172.00
2022-09-01T04:22:32.529Z,188.00
2022-09-01T04:23:34.663Z,204.00
2022-09-01T04:24:36.762Z,228.00
2022-09-01T04:25:38.918Z,244.00
2022-09-01T04:26:40.018Z,264.00
2022-09-01T04:27:42.139Z,284.00
2022-09-01T04:28:44.325Z,308.00
2022-09-01T04:29:46.471Z,332.00
2022-09-01T04:30:47.656Z,356.00
2022-09-01T04:31:49.122Z,380.00
2022-09-01T04:32:50.133Z,408.00
2022-09-01T04:33:52.270Z,440.00
2022-09-01T04:34:54.393Z,468.00
2022-09-01T04:36:02.537Z,500.00
2022-09-01T04:36:57.662Z,532.00
2022-09-01T04:37:58.719Z,564.00
2022-09-01T04:39:00.910Z,604.00
2022-09-01T04:40:01.959Z,660.00
2022-09-01T04:41:04.204Z,720.00
2022-09-01T04:42:06.329Z,780.00
2022-09-01T04:43:08.462Z,832.00
2022-09-01T04:44:10.776Z,888.00
2022-09-01T04:45:11.733Z,940.00
2022-09-01T04:46:12.735Z,988.00
2022-09-01T04:47:13.767Z,1036.00
2022-09-01T04:48:15.944Z,1092.00
2022-09-01T04:49:18.063Z,1144.00
2022-09-01T04:50:19.398Z,1196.00
2022-09-01T04:51:21.527Z,1248.00
2022-09-01T04:52:23.673Z,1308.00
2022-09-01T04:53:28.489Z,1364.00
2022-09-01T04:54:27.457Z,1424.00
2022-09-01T04:55:29.599Z,1476.00
2022-09-01T04:56:31.689Z,1536.00
2022-09-01T04:57:33.825Z,1592.00
2022-09-01T04:58:35.957Z,1620.00
2022-09-01T04:59:38.108Z,1668.00
2022-09-01T05:00:40.355Z,1720.00
2022-09-01T05:01:42.591Z,1772.00
2022-09-01T05:02:44.734Z,1840.00
2022-09-01T05:03:46.171Z,1892.00
2022-09-01T05:04:47.130Z,1964.00
2022-09-01T05:05:49.303Z,2044.00
2022-09-01T05:06:51.431Z,2128.00
2022-09-01T05:07:53.936Z,2160.00
2022-09-01T05:08:55.088Z,2212.00
2022-09-01T05:10:00.576Z,2252.00
2022-09-01T05:10:57.378Z,2332.00
2022-09-01T05:11:59.549Z,2372.00
2022-09-01T05:13:01.676Z,2540.00
2022-09-01T05:14:02.657Z,2716.00
2022-09-01T05:15:03.634Z,3104.00
2022-09-01T05:16:05.804Z,3472.00
2022-09-01T05:17:07.935Z,3372.00
2022-09-01T05:18:10.068Z,3324.00
2022-09-01T05:19:11.029Z,3664.00
2022-09-01T05:20:11.992Z,3428.00
2022-09-01T05:21:13.029Z,3972.00
2022-09-01T05:22:15.155Z,4512.00
2022-09-01T05:23:16.481Z,4952.00
2022-09-01T05:24:17.445Z,5216.00
2022-09-01T05:25:19.725Z,5284.00
2022-09-01T05:26:20.960Z,4464.00
2022-09-01T05:27:23.090Z,4040.00
2022-09-01T05:28:24.099Z,3160.00
2022-09-01T05:29:26.351Z,3192.00
2022-09-01T05:30:28.446Z,2692.00
2022-09-01T05:31:30.656Z,2960.00
2022-09-01T05:32:32.815Z,3768.00
2022-09-01T05:33:34.943Z,4644.00
2022-09-01T05:34:37.064Z,3756.00
2022-09-01T05:35:39.243Z,3292.00
2022-09-01T05:36:41.594Z,3864.00
2022-09-01T05:37:43.735Z,4976.00
2022-09-01T05:38:45.889Z,5796.00
2022-09-01T05:39:47.003Z,6776.00
2022-09-01T05:40:47.978Z,7172.00
2022-09-01T05:41:50.171Z,4300.00
2022-09-01T05:42:52.341Z,4640.00
2022-09-01T05:44:00.082Z,4180.00
2022-09-01T05:44:56.748Z,4440.00
2022-09-01T05:46:06.670Z,4116.00
2022-09-01T05:47:00.130Z,6532.00
2022-09-01T05:48:01.179Z,5732.00
2022-09-01T05:49:02.137Z,4856.00
2022-09-01T05:50:04.232Z,4952.00
2022-09-01T05:51:17.642Z,5040.00
2022-09-01T05:52:08.820Z,4216.00
2022-09-01T05:53:11.076Z,5020.00
2022-09-01T05:54:10.716Z,5640.00
2022-09-01T05:55:11.811Z,5016.00
2022-09-01T05:56:13.911Z,4544.00
2022-09-01T05:57:33.726Z,5056.00
2022-09-01T05:58:18.286Z,4024.00
2022-09-01T05:59:23.605Z,5340.00
2022-09-01T06:00:20.518Z,4624.00
2022-09-01T06:01:22.727Z,5472.00
2022-09-01T06:02:25.923Z,5716.00
2022-09-01T06:03:26.328Z,6544.00
2022-09-01T06:04:27.434Z,9156.00
2022-09-01T06:05:29.565Z,12004.00
2022-09-01T06:06:43.733Z,13464.00
2022-09-01T06:07:33.935Z,12736.00
2022-09-01T06:08:35.006Z,11684.00
2022-09-01T06:09:37.093Z,11272.00
2022-09-01T06:10:39.272Z,12736.00
2022-09-01T06:11:41.415Z,14464.00
2022-09-01T06:12:43.501Z,8496.00
2022-09-01T06:13:45.629Z,13552.00
2022-09-01T06:14:47.724Z,14464.00
2022-09-01T06:15:49.980Z,13444.00
2022-09-01T06:16:50.973Z,12492.00
2022-09-01T06:17:53.110Z,14336.00
2022-09-01T06:18:55.237Z,13732.00
2022-09-01T06:19:56.719Z,14304.00
2022-09-01T06:20:58.887Z,15552.00
2022-09-01T06:22:01.020Z,13252.00
2022-09-01T06:23:03.144Z,15232.00
2022-09-01T06:24:05.371Z,16416.00
2022-09-01T06:25:07.497Z,17248.00
2022-09-01T06:26:09.661Z,16576.00
2022-09-01T06:27:10.700Z,13412.00
2022-09-01T06:28:12.831Z,16960.00
2022-09-01T06:29:15.017Z,16128.00
2022-09-01T06:30:22.598Z,16640.00
2022-09-01T06:31:19.534Z,17664.00
2022-09-01T06:32:20.530Z,18816.00
2022-09-01T06:33:22.654Z,18976.00
2022-09-01T06:34:24.779Z,19520.00
2022-09-01T06:35:25.735Z,19104.00
2022-09-01T06:36:26.687Z,19360.00
2022-09-01T06:37:28.812Z,20160.00
2022-09-01T06:38:30.932Z,21024.00
2022-09-01T06:39:33.061Z,21248.00
2022-09-01T06:40:35.379Z,21504.00
2022-09-01T06:41:36.499Z,21856.00
2022-09-01T06:42:38.635Z,22144.00
2022-09-01T06:43:40.751Z,22528.00
2022-09-01T06:44:43.039Z,22496.00
2022-09-01T06:45:45.158Z,22496.00
2022-09-01T06:46:47.349Z,23488.00
2022-09-01T06:47:48.405Z,24352.00
2022-09-01T06:48:50.535Z,24672.00
2022-09-01T06:49:57.318Z,24288.00
2022-09-01T06:51:23.539Z,24160.00
2022-09-01T06:51:56.198Z,24928.00
2022-09-01T06:53:57.373Z,25824.00
2022-09-01T06:55:00.386Z,26848.00
2022-09-01T06:56:01.063Z,27552.00
2022-09-01T06:58:03.398Z,28288.00
2022-09-01T06:58:06.143Z,28928.00
2022-09-01T06:59:05.268Z,28416.00
2022-09-01T07:00:07.165Z,27808.00
2022-09-01T07:01:09.288Z,28256.00
2022-09-01T07:02:16.772Z,29312.00
2022-09-01T07:03:13.078Z,30144.00
2022-09-01T07:04:14.100Z,28448.00
2022-09-01T07:05:59.832Z,30080.00
2022-09-01T07:08:18.932Z,30688.00
2022-09-01T07:09:22.163Z,31904.00
2022-09-01T07:10:22.787Z,32640.00
2022-09-01T07:12:08.506Z,31520.00
2022-09-01T07:12:26.138Z,30432.00
2022-09-01T07:13:26.334Z,29920.00
2022-09-01T07:14:28.423Z,29856.00
2022-09-01T07:16:33.869Z,29984.00
2022-09-01T07:17:32.184Z,30176.00
2022-09-01T07:18:34.301Z,30848.00
2022-09-01T07:19:51.761Z,30368.00
2022-09-01T07:21:02.710Z,30368.00
2022-09-01T07:21:42.159Z,30464.00
2022-09-01T07:23:10.526Z,30176.00
2022-09-01T07:24:07.638Z,31584.00
2022-09-01T07:24:45.411Z,30720.00
2022-09-01T07:26:01.256Z,27904.00
2022-09-01T07:26:48.245Z,26880.00
2022-09-01T07:27:49.207Z,21312.00
2022-09-01T07:28:50.466Z,23616.00
2022-09-01T07:29:52.596Z,15852.00
2022-09-01T07:30:54.881Z,15380.00
2022-09-01T07:33:41.677Z,14304.00
2022-09-01T07:35:00.842Z,13448.00
2022-09-01T07:38:48.362Z,23840.00
2022-09-01T07:43:10.562Z,15496.00
2022-09-01T07:44:12.721Z,16896.00
2022-09-01T07:45:29.328Z,20640.00
2022-09-01T07:47:20.262Z,17120.00
2022-09-01T07:50:07.965Z,17696.00
2022-09-01T07:51:38.141Z,18720.00
2022-09-01T07:52:24.517Z,19808.00
2022-09-01T07:53:24.905Z,37344.00
2022-09-01T07:54:26.026Z,20384.00
2022-09-01T07:55:27.005Z,23104.00
2022-09-01T07:56:29.199Z,44704.00
2022-09-01T07:57:30.198Z,29888.00
2022-09-01T07:58:32.319Z,33184.00
2022-09-01T07:59:34.443Z,30752.00
2022-09-01T08:00:36.594Z,22432.00
2022-09-01T08:01:37.613Z,21408.00
2022-09-01T08:02:39.841Z,19552.00
2022-09-01T08:03:42.012Z,18016.00
2022-09-01T08:04:44.139Z,17280.00
2022-09-01T08:05:46.289Z,16864.00
2022-09-01T08:06:48.446Z,16768.00
2022-09-01T08:07:52.012Z,16340.00
2022-09-01T08:08:56.984Z,15912.00
2022-09-01T08:09:56.011Z,15632.00
2022-09-01T08:11:04.265Z,15600.00
2022-09-01T08:12:02.257Z,15712.00
2022-09-01T08:12:59.129Z,15988.00
2022-09-01T08:14:00.316Z,16520.00
2022-09-01T08:16:08.434Z,18016.00
2022-09-01T08:18:06.355Z,18720.00
2022-09-01T08:19:16.343Z,18848.00
2022-09-01T08:20:10.790Z,19264.00
2022-09-01T08:21:11.550Z,20128.00
2022-09-01T08:22:18.832Z,21152.00
2022-09-01T08:23:14.039Z,21184.00
2022-09-01T08:24:16.160Z,21984.00
2022-09-01T08:25:21.815Z,23104.00
2022-09-01T08:26:20.622Z,24320.00
2022-09-01T08:27:21.593Z,25120.00
2022-09-01T08:28:27.202Z,24960.00
2022-09-01T08:29:25.998Z,26048.00
2022-09-01T08:30:28.152Z,27520.00
2022-09-01T08:31:30.971Z,25248.00
2022-09-01T08:32:32.216Z,25440.00
2022-09-01T08:33:34.375Z,26336.00
2022-09-01T08:34:36.511Z,27168.00
2022-09-01T08:35:38.693Z,26208.00
2022-09-01T08:36:40.826Z,25376.00
2022-09-01T08:37:43.139Z,25120.00
2022-09-01T08:38:44.093Z,25888.00
2022-09-01T08:39:46.292Z,26720.00
2022-09-01T08:40:47.336Z,26336.00
2022-09-01T08:41:48.334Z,27104.00
2022-09-01T08:42:49.445Z,28192.00
2022-09-01T08:43:51.581Z,28608.00
2022-09-01T08:44:53.669Z,29824.00
2022-09-01T08:45:55.931Z,31520.00
2022-09-01T08:46:57.065Z,30208.00
2022-09-01T08:48:29.007Z,30848.00
2022-09-01T08:50:01.621Z,32800.00
2022-09-01T08:51:07.130Z,31616.00
2022-09-01T08:52:06.036Z,33536.00
2022-09-01T08:53:10.158Z,30400.00
2022-09-01T08:54:08.808Z,31040.00
2022-09-01T08:55:10.938Z,32032.00
2022-09-01T08:56:13.064Z,32416.00
2022-09-01T08:57:15.190Z,34080.00
2022-09-01T08:58:17.388Z,42400.00
2022-09-01T08:59:18.528Z,31040.00
2022-09-01T09:00:20.694Z,31712.00
2022-09-01T09:01:22.975Z,29344.00
2022-09-01T09:02:24.090Z,29184.00
2022-09-01T09:03:25.049Z,29568.00
2022-09-01T09:04:27.175Z,30976.00
2022-09-01T09:05:29.299Z,31648.00
2022-09-01T09:06:31.445Z,41120.00
2022-09-01T09:07:33.625Z,28864.00
2022-09-01T09:08:35.757Z,28704.00
2022-09-01T09:09:37.891Z,27904.00
2022-09-01T09:10:40.075Z,30656.00
2022-09-01T09:11:42.171Z,27904.00
2022-09-01T09:12:50.651Z,40512.00
2022-09-01T09:13:46.678Z,28864.00
2022-09-01T09:14:47.697Z,38656.00
2022-09-01T09:15:49.864Z,38400.00
2022-09-01T09:16:53.093Z,35840.00
2022-09-01T09:17:59.030Z,26976.00
2022-09-01T09:18:55.792Z,28480.00
2022-09-01T09:19:56.071Z,29472.00
2022-09-01T09:20:58.200Z,28032.00
2022-09-01T09:22:00.381Z,28192.00
2022-09-01T09:23:03.958Z,42560.00
2022-09-01T09:24:03.861Z,33696.00
2022-09-01T09:25:05.950Z,50368.00
2022-09-01T09:26:08.405Z,57760.00
2022-09-01T09:27:09.586Z,66144.00
2022-09-01T09:28:10.835Z,65600.00
2022-09-01T09:29:12.462Z,63616.00
2022-09-01T09:30:14.654Z,62240.00
2022-09-01T09:31:17.977Z,62400.00
2022-09-01T09:32:44.244Z,61824.00
2022-09-01T09:34:22.622Z,59328.00
2022-09-01T09:35:24.882Z,59040.00
2022-09-01T09:36:27.050Z,58816.00
2022-09-01T09:37:29.175Z,59456.00
2022-09-01T09:38:30.130Z,58976.00
2022-09-01T09:39:31.097Z,57984.00
2022-09-01T09:40:43.288Z,56704.00
2022-09-01T09:41:36.083Z,61088.00
2022-09-01T09:42:36.695Z,58144.00
2022-09-01T09:43:36.602Z,59840.00
2022-09-01T09:44:38.453Z,62016.00
2022-09-01T09:45:41.982Z,61632.00
2022-09-01T09:46:41.162Z,58784.00
2022-09-01T09:47:44.719Z,62944.00
2022-09-01T09:48:43.732Z,57216.00
2022-09-01T09:49:48.854Z,60672.00
2022-09-01T09:50:47.619Z,59872.00
2022-09-01T09:51:49.387Z,60576.00
2022-09-01T09:52:51.515Z,64000.00
2022-09-01T09:53:54.335Z,62688.00
2022-09-01T09:54:55.396Z,63616.00
2022-09-01T09:55:57.574Z,61760.00
2022-09-01T09:56:59.778Z,65312.00
2022-09-01T09:58:00.763Z,62368.00
2022-09-01T09:59:02.891Z,65248.00
2022-09-01T10:00:03.864Z,63936.00
2022-09-01T10:01:05.258Z,62784.00
2022-09-01T10:02:06.457Z,65152.00
2022-09-01T10:03:08.638Z,64256.00
2022-09-01T10:04:09.973Z,63168.00
2022-09-01T10:05:12.256Z,64800.00
2022-09-01T10:06:13.475Z,64096.00
2022-09-01T10:07:14.585Z,67136.00
2022-09-01T10:08:15.907Z,67872.00
2022-09-01T10:09:18.065Z,67296.00
2022-09-01T10:10:20.397Z,67392.00
2022-09-01T10:11:21.466Z,66592.00
2022-09-01T10:12:23.085Z,69024.00
2022-09-01T10:13:24.078Z,66592.00
2022-09-01T10:14:50.298Z,66912.00
2022-09-01T10:15:30.143Z,70368.00
2022-09-01T10:16:29.112Z,66336.00
2022-09-01T10:17:30.521Z,67936.00
2022-09-01T10:18:32.874Z,72320.00
2022-09-01T10:19:35.847Z,63840.00
2022-09-01T10:20:35.887Z,74080.00
2022-09-01T10:21:37.098Z,71200.00
2022-09-01T10:22:39.308Z,68288.00
2022-09-01T10:23:41.708Z,71776.00
2022-09-01T10:24:45.916Z,68480.00
2022-09-01T10:25:44.497Z,71456.00
2022-09-01T10:26:45.545Z,69792.00
2022-09-01T10:27:47.791Z,72864.00
2022-09-01T10:28:50.820Z,72544.00
2022-09-01T10:29:50.837Z,68064.00
2022-09-01T10:30:53.061Z,67936.00
2022-09-01T10:32:14.767Z,73056.00
2022-09-01T10:33:01.483Z,71072.00
2022-09-01T10:33:59.780Z,71392.00
2022-09-01T10:35:00.902Z,73792.00
2022-09-01T10:36:02.383Z,70464.00
2022-09-01T10:37:03.725Z,70080.00
2022-09-01T10:38:05.819Z,70752.00
2022-09-01T10:39:09.086Z,73152.00
2022-09-01T10:40:10.485Z,72768.00
2022-09-01T10:41:14.777Z,68192.00
2022-09-01T10:42:13.354Z,72128.00
2022-09-01T10:43:14.850Z,69024.00
2022-09-01T10:44:16.970Z,71776.00
2022-09-01T10:45:19.092Z,75968.00
2022-09-01T10:46:39.067Z,70976.00
2022-09-01T10:47:23.575Z,71808.00
2022-09-01T10:48:33.360Z,73568.00
2022-09-01T10:49:27.715Z,75040.00
2022-09-01T10:50:29.403Z,71712.00
2022-09-01T10:51:36.353Z,75936.00
2022-09-01T10:52:32.375Z,73056.00
2022-09-01T10:53:33.927Z,69920.00
2022-09-01T10:54:38.478Z,71968.00
2022-09-01T10:55:36.209Z,69120.00
2022-09-01T10:56:43.632Z,72192.00
2022-09-01T10:57:42.348Z,72480.00
2022-09-01T10:59:44.949Z,55744.00
2022-09-01T11:01:10.710Z,68512.00
2022-09-01T11:01:49.892Z,77024.00
2022-09-01T11:02:46.973Z,68256.00
2022-09-01T11:03:48.406Z,47648.00
2022-09-01T11:04:49.517Z,76512.00
2022-09-01T11:05:50.812Z,73824.00
2022-09-01T11:08:01.757Z,53408.00
2022-09-01T11:08:56.101Z,63872.00
2022-09-01T11:09:57.731Z,51904.00
2022-09-01T11:10:58.995Z,18912.00
2022-09-01T11:12:00.017Z,14828.00
2022-09-01T11:13:00.985Z,70944.00
2022-09-01T11:14:02.556Z,12864.00
2022-09-01T11:15:04.693Z,12776.00
2022-09-01T11:16:06.969Z,13928.00
2022-09-01T11:17:09.195Z,16132.00
2022-09-01T11:18:10.181Z,18496.00
2022-09-01T11:19:16.081Z,51968.00
2022-09-01T11:20:12.538Z,68896.00
2022-09-01T11:21:13.537Z,71136.00
2022-09-01T11:22:14.502Z,71008.00
2022-09-01T11:23:15.835Z,74592.00
2022-09-01T11:24:17.932Z,77120.00
2022-09-01T11:25:20.370Z,79200.00
2022-09-01T11:26:22.495Z,77408.00
2022-09-01T11:27:24.624Z,78016.00
2022-09-01T11:28:26.242Z,23808.00
2022-09-01T11:29:28.381Z,21728.00
2022-09-01T11:30:30.479Z,23936.00
2022-09-01T11:31:31.884Z,23648.00
2022-09-01T11:32:32.876Z,22752.00
2022-09-01T11:33:34.995Z,15572.00
2022-09-01T11:34:36.074Z,14420.00
2022-09-01T11:35:38.200Z,13728.00
2022-09-01T11:36:40.326Z,13508.00
2022-09-01T11:37:42.557Z,14132.00
2022-09-01T11:38:44.704Z,14940.00
2022-09-01T11:39:46.160Z,15264.00
2022-09-01T11:40:47.304Z,15504.00
2022-09-01T11:41:51.728Z,16000.00
2022-09-01T11:42:50.584Z,16832.00
2022-09-01T11:43:51.553Z,17792.00
2022-09-01T11:44:54.089Z,18208.00
2022-09-01T11:45:55.438Z,18432.00
2022-09-01T11:46:56.473Z,19936.00
2022-09-01T11:47:57.508Z,32928.00
2022-09-01T11:48:59.664Z,23648.00
2022-09-01T11:50:00.621Z,42976.00
2022-09-01T11:51:01.886Z,21952.00
2022-09-01T11:52:04.073Z,18880.00
2022-09-01T11:53:06.292Z,23584.00
2022-09-01T11:54:08.427Z,17632.00
2022-09-01T11:55:10.605Z,15204.00
2022-09-01T11:56:12.812Z,13084.00
2022-09-01T11:57:14.948Z,11944.00
2022-09-01T11:58:18.059Z,11344.00
2022-09-01T11:59:18.040Z,11076.00
2022-09-01T12:00:20.269Z,10808.00
2022-09-01T12:01:21.217Z,10812.00
2022-09-01T12:02:23.532Z,11212.00
2022-09-01T12:03:24.934Z,11108.00
2022-09-01T12:04:26.200Z,11140.00
2022-09-01T12:05:28.333Z,11660.00
2022-09-01T12:06:30.464Z,11192.00
2022-09-01T12:07:32.671Z,11296.00
2022-09-01T12:08:34.806Z,11472.00
2022-09-01T12:09:36.937Z,11580.00
2022-09-01T12:10:39.133Z,11508.00
2022-09-01T12:11:41.276Z,11420.00
2022-09-01T12:12:43.586Z,11200.00
2022-09-01T12:13:44.543Z,10980.00
2022-09-01T12:15:04.812Z,10712.00
2022-09-01T12:16:14.184Z,10608.00
2022-09-01T12:16:50.214Z,10508.00
2022-09-01T12:17:51.326Z,10368.00
2022-09-01T12:18:53.502Z,10036.00
2022-09-01T12:19:55.590Z,9608.00
2022-09-01T12:20:57.732Z,9380.00
2022-09-01T12:21:59.918Z,9276.00
2022-09-01T12:23:02.202Z,9148.00
2022-09-01T12:24:04.328Z,8996.00
2022-09-01T12:25:06.540Z,9012.00
2022-09-01T12:26:07.503Z,9132.00
2022-09-01T12:27:09.670Z,9208.00
2022-09-01T12:28:11.806Z,9336.00
2022-09-01T12:29:13.927Z,9452.00
2022-09-01T12:30:16.040Z,9612.00
2022-09-01T12:31:18.127Z,9808.00
2022-09-01T12:32:20.290Z,10004.00
2022-09-01T12:33:24.211Z,10292.00
2022-09-01T12:34:24.407Z,10676.00
2022-09-01T12:35:25.407Z,11108.00
2022-09-01T12:36:27.557Z,11472.00
2022-09-01T12:37:28.513Z,11652.00
2022-09-01T12:38:29.478Z,11708.00
2022-09-01T12:39:30.508Z,11832.00
2022-09-01T12:40:32.685Z,12180.00
2022-09-01T12:41:33.732Z,12548.00
2022-09-01T12:42:41.582Z,12764.00
2022-09-01T12:43:38.157Z,12932.00
2022-09-01T12:44:39.582Z,13256.00
2022-09-01T12:45:40.710Z,13520.00
2022-09-01T12:46:42.886Z,13732.00
2022-09-01T12:47:45.164Z,13940.00
2022-09-01T12:48:46.613Z,14192.00
2022-09-01T12:49:50.490Z,14448.00
2022-09-01T12:50:49.721Z,14524.00
2022-09-01T12:51:51.888Z,14528.00
2022-09-01T12:52:54.135Z,14448.00
2022-09-01T12:53:58.492Z,14304.00
2022-09-01T12:54:58.529Z,14264.00
2022-09-01T12:56:00.650Z,14368.00
2022-09-01T12:57:02.829Z,14596.00
2022-09-01T12:58:03.905Z,14632.00
2022-09-01T12:59:07.787Z,14448.00
2022-09-01T13:00:08.298Z,14224.00
2022-09-01T13:01:16.016Z,13888.00
2022-09-01T13:02:11.873Z,13556.00
2022-09-01T13:03:11.731Z,13240.00
2022-09-01T13:04:14.299Z,12996.00
2022-09-01T13:05:15.651Z,12896.00
2022-09-01T13:06:17.794Z,12776.00
2022-09-01T13:07:19.922Z,12624.00
2022-09-01T13:08:22.017Z,12464.00
2022-09-01T13:09:24.150Z,12324.00
2022-09-01T13:10:26.297Z,12328.00
2022-09-01T13:12:06.041Z,12260.00
2022-09-01T13:12:29.690Z,12036.00
2022-09-01T13:13:31.826Z,11912.00
2022-09-01T13:14:33.956Z,11792.00
2022-09-01T13:15:36.083Z,11592.00
2022-09-01T13:16:38.439Z,11332.00
2022-09-01T13:17:40.532Z,10800.00
2022-09-01T13:19:12.651Z,10008.00
2022-09-01T13:19:45.031Z,9512.00
2022-09-01T13:20:45.954Z,9424.00
2022-09-01T13:21:48.083Z,9612.00
2022-09-01T13:22:50.283Z,10008.00
2022-09-01T13:23:52.459Z,10016.00
2022-09-01T13:24:54.612Z,9768.00
2022-09-01T13:25:57.060Z,9516.00
2022-09-01T13:27:59.301Z,9536.00
2022-09-01T13:29:00.255Z,9956.00
2022-09-01T13:30:01.226Z,10936.00
2022-09-01T13:32:21.346Z,13048.00
2022-09-01T13:33:23.140Z,13324.00
2022-09-01T13:34:10.423Z,13240.00
2022-09-01T13:35:08.588Z,13152.00
2022-09-01T13:37:11.066Z,13836.00
2022-09-01T13:38:13.193Z,14344.00
2022-09-01T13:39:15.668Z,14688.00
2022-09-01T13:40:17.326Z,14868.00
2022-09-01T13:41:19.463Z,15000.00
2022-09-01T13:42:21.552Z,15060.00
2022-09-01T13:43:23.711Z,15028.00
2022-09-01T13:44:24.886Z,14968.00
2022-09-01T13:45:25.977Z,14784.00
2022-09-01T13:46:28.111Z,14656.00
2022-09-01T13:47:30.771Z,14528.00
2022-09-01T13:51:14.101Z,14472.00
2022-09-01T13:51:36.579Z,14076.00
2022-09-01T13:52:37.503Z,13548.00
2022-09-01T13:53:39.634Z,13136.00
2022-09-01T13:54:41.759Z,13032.00
2022-09-01T13:55:43.881Z,13200.00
2022-09-01T13:56:44.842Z,13528.00
2022-09-01T13:57:45.804Z,13740.00
2022-09-01T13:58:46.822Z,13508.00
2022-09-01T13:59:48.030Z,12948.00
2022-09-01T14:00:50.202Z,12344.00
2022-09-01T14:01:51.172Z,11852.00
2022-09-01T14:02:53.268Z,11456.00
2022-09-01T14:04:00.140Z,11224.00
2022-09-01T14:04:56.783Z,11116.00
2022-09-01T14:05:58.961Z,11184.00
2022-09-01T14:07:01.080Z,11528.00
2022-09-01T14:08:03.207Z,11852.00
2022-09-01T14:09:05.478Z,11968.00
2022-09-01T14:10:07.633Z,11936.00
2022-09-01T14:11:09.765Z,11812.00
2022-09-01T14:12:11.845Z,11456.00
2022-09-01T14:13:13.976Z,10916.00
2022-09-01T14:14:16.106Z,10552.00
2022-09-01T14:15:21.569Z,10548.00
2022-09-01T14:16:19.623Z,10756.00
2022-09-01T14:17:21.832Z,10936.00
2022-09-01T14:18:24.033Z,10948.00
2022-09-01T14:19:26.273Z,10648.00
2022-09-01T14:20:28.361Z,10088.00
2022-09-01T14:21:30.451Z,9492.00
2022-09-01T14:22:36.451Z,8812.00
2022-09-01T14:23:33.829Z,8344.00
2022-09-01T14:24:36.403Z,7984.00
2022-09-01T14:25:36.458Z,7676.00
2022-09-01T14:26:38.582Z,7456.00
2022-09-01T14:27:40.744Z,7256.00
2022-09-01T14:28:41.777Z,6992.00
2022-09-01T14:30:44.554Z,6624.00
2022-09-01T14:31:46.889Z,6616.00
2022-09-01T14:32:48.035Z,6764.00
2022-09-01T14:33:50.167Z,7076.00
2022-09-01T14:34:52.330Z,7452.00
2022-09-01T14:35:53.353Z,7704.00
2022-09-01T14:36:54.316Z,7696.00
2022-09-01T14:37:56.440Z,7440.00
2022-09-01T14:38:58.660Z,7084.00
2022-09-01T14:40:00.880Z,6784.00
2022-09-01T14:41:03.005Z,6684.00
2022-09-01T14:42:05.245Z,6812.00
2022-09-01T14:43:06.240Z,7020.00
2022-09-01T14:44:08.364Z,7288.00
2022-09-01T14:45:10.554Z,7324.00
2022-09-01T14:46:12.883Z,7128.00
2022-09-01T14:47:19.107Z,6812.00
2022-09-01T14:48:16.104Z,6664.00
2022-09-01T14:49:22.100Z,6864.00
2022-09-01T14:50:21.750Z,7204.00
2022-09-01T14:51:20.517Z,7360.00
2022-09-01T14:52:22.646Z,7184.00
2022-09-01T14:53:24.766Z,6724.00
2022-09-01T14:54:26.903Z,6444.00
2022-09-01T14:55:29.067Z,6352.00
2022-09-01T14:56:31.204Z,6240.00
2022-09-01T14:57:36.855Z,6220.00
2022-09-01T14:58:35.525Z,6148.00
2022-09-01T14:59:37.648Z,5888.00
2022-09-01T15:00:39.795Z,5536.00
2022-09-01T15:01:42.008Z,5164.00
2022-09-01T15:02:44.196Z,4816.00
2022-09-01T15:03:46.449Z,4532.00
2022-09-01T15:04:48.568Z,4352.00
2022-09-01T15:05:49.550Z,4136.00
2022-09-01T15:06:51.682Z,3892.00
2022-09-01T15:07:53.808Z,3716.00
2022-09-01T15:08:56.336Z,3644.00
2022-09-01T15:09:57.281Z,3676.00
2022-09-01T15:10:59.409Z,3756.00
2022-09-01T15:12:01.530Z,3732.00
2022-09-01T15:13:03.658Z,3632.00
2022-09-01T15:14:05.776Z,3588.00
2022-09-01T15:15:08.009Z,3656.00
2022-09-01T15:16:10.229Z,3876.00
2022-09-01T15:17:11.222Z,4140.00
2022-09-01T15:18:13.432Z,4352.00
2022-09-01T15:19:15.567Z,4456.00
2022-09-01T15:20:16.603Z,4428.00
2022-09-01T15:21:17.527Z,4428.00
2022-09-01T15:22:19.657Z,4392.00
2022-09-01T15:23:21.786Z,4336.00
2022-09-01T15:24:23.997Z,4312.00
2022-09-01T15:25:24.984Z,4236.00
2022-09-01T15:26:27.117Z,4108.00
2022-09-01T15:27:29.258Z,4100.00
2022-09-01T15:28:31.386Z,4104.00
2022-09-01T15:29:33.534Z,4204.00
2022-09-01T15:30:35.618Z,4424.00
2022-09-01T15:31:37.886Z,4696.00
2022-09-01T15:32:38.936Z,5024.00
2022-09-01T15:33:41.060Z,5188.00
2022-09-01T15:34:43.185Z,5052.00
2022-09-01T15:35:45.343Z,4876.00
2022-09-01T15:36:47.439Z,4684.00
2022-09-01T15:37:49.603Z,4460.00
2022-09-01T15:38:51.724Z,4264.00
2022-09-01T15:39:53.845Z,4200.00
2022-09-01T15:40:58.500Z,4328.00
2022-09-01T15:41:57.465Z,4544.00
2022-09-01T15:42:59.598Z,4640.00
2022-09-01T15:44:01.720Z,4488.00
2022-09-01T15:45:03.893Z,4096.00
2022-09-01T15:46:04.906Z,3748.00
2022-09-01T15:47:07.118Z,3496.00
2022-09-01T15:48:08.107Z,3380.00
2022-09-01T15:49:10.250Z,3296.00
2022-09-01T15:50:12.376Z,3132.00
2022-09-01T15:51:14.688Z,2960.00
2022-09-01T15:52:15.649Z,2784.00
2022-09-01T15:53:17.850Z,2648.00
2022-09-01T15:54:20.023Z,2544.00
2022-09-01T15:55:22.223Z,2468.00
2022-09-01T15:56:23.208Z,2432.00
2022-09-01T15:57:25.332Z,2420.00
2022-09-01T15:58:44.522Z,2392.00
2022-09-01T15:59:30.272Z,2364.00
2022-09-01T16:00:31.305Z,2348.00
2022-09-01T16:01:32.415Z,2328.00
2022-09-01T16:02:34.725Z,2300.00
2022-09-01T16:03:35.753Z,2272.00
2022-09-01T16:04:36.991Z,2256.00
2022-09-01T16:05:39.270Z,2260.00
2022-09-01T16:06:40.201Z,2296.00
2022-09-01T16:07:42.332Z,2312.00
2022-09-01T16:08:50.624Z,2316.00
2022-09-01T16:09:45.751Z,2336.00
2022-09-01T16:10:47.874Z,2372.00
2022-09-01T16:11:49.978Z,2404.00
2022-09-01T16:12:52.269Z,2420.00
2022-09-01T16:13:53.861Z,2416.00
2022-09-01T16:14:54.949Z,2380.00
2022-09-01T16:15:57.154Z,2304.00
2022-09-01T16:16:59.534Z,2228.00
2022-09-01T16:18:01.176Z,2152.00
2022-09-01T16:19:02.581Z,2060.00
2022-09-01T16:20:04.711Z,2012.00
2022-09-01T16:21:05.904Z,1976.00
2022-09-01T16:22:14.083Z,1976.00
2022-09-01T16:23:09.481Z,1972.00
2022-09-01T16:24:10.515Z,1936.00
2022-09-01T16:25:12.668Z,1920.00
2022-09-01T16:26:14.824Z,1892.00
2022-09-01T16:27:16.980Z,1876.00
2022-09-01T16:28:18.051Z,1868.00
2022-09-01T16:29:20.267Z,1868.00
2022-09-01T16:30:22.438Z,1872.00
2022-09-01T16:31:23.458Z,1884.00
2022-09-01T16:32:25.590Z,1856.00
2022-09-01T16:33:26.662Z,1792.00
2022-09-01T16:34:28.711Z,1760.00
2022-09-01T16:35:29.855Z,1732.00
2022-09-01T16:36:30.816Z,1708.00
2022-09-01T16:37:38.623Z,1692.00
2022-09-01T16:38:33.738Z,1668.00
2022-09-01T16:39:35.869Z,1644.00
2022-09-01T16:40:38.064Z,1616.00
2022-09-01T16:41:40.283Z,1596.00
2022-09-01T16:42:42.464Z,1576.00
2022-09-01T16:43:43.659Z,1564.00
2022-09-01T16:44:44.817Z,1548.00
2022-09-01T16:45:47.377Z,1536.00
2022-09-01T16:46:48.402Z,1524.00
2022-09-01T16:47:50.562Z,1512.00
2022-09-01T16:48:58.746Z,1496.00
2022-09-01T16:49:53.893Z,1480.00
2022-09-01T16:50:56.252Z,1468.00
2022-09-01T16:51:58.094Z,1452.00
2022-09-01T16:53:00.481Z,1440.00
2022-09-01T16:54:01.445Z,1428.00
2022-09-01T16:55:02.605Z,1412.00
2022-09-01T16:56:04.733Z,1396.00
2022-09-01T16:57:06.941Z,1380.00
2022-09-01T16:58:09.161Z,1364.00
2022-09-01T16:59:10.870Z,1348.00